createdAt,value
2022-08-14T00:00:46.463Z,16.60
2022-08-14T00:03:29.770Z,16.50
2022-08-14T00:06:14.084Z,16.50
2022-08-14T00:08:59.258Z,16.70
2022-08-14T00:11:31.364Z,16.50
2022-08-14T00:14:03.993Z,16.40
2022-08-14T00:16:41.291Z,16.30
2022-08-14T00:19:19.474Z,16.30
2022-08-14T00:21:50.905Z,16.00
2022-08-14T00:24:28.581Z,15.90
2022-08-14T00:27:02.878Z,15.90
2022-08-14T00:29:40.026Z,15.90
2022-08-14T00:32:51.750Z,16.10
2022-08-14T00:35:09.258Z,16.00
2022-08-14T00:37:44.690Z,16.10
2022-08-14T00:40:33.198Z,16.00
2022-08-14T00:43:04.933Z,15.80
2022-08-14T00:45:35.815Z,16.00
2022-08-14T00:48:07.547Z,15.90
2022-08-14T00:50:41.033Z,15.80
2022-08-14T00:53:11.631Z,15.80
2022-08-14T00:55:43.445Z,15.70
2022-08-14T00:58:27.799Z,15.70
2022-08-14T01:01:08.157Z,15.50
2022-08-14T01:03:42.376Z,15.40
2022-08-14T01:06:18.567Z,15.40
2022-08-14T01:08:51.607Z,15.50
2022-08-14T01:11:35.600Z,15.40
2022-08-14T01:14:25.322Z,15.40
2022-08-14T01:16:57.944Z,15.40
2022-08-14T01:19:43.394Z,15.30
2022-08-14T01:22:19.101Z,15.40
2022-08-14T01:24:51.078Z,15.40
2022-08-14T01:27:24.682Z,15.40
2022-08-14T01:30:04.298Z,15.40
2022-08-14T01:32:42.487Z,15.40
2022-08-14T01:35:17.699Z,15.40
2022-08-14T01:38:06.427Z,15.10
2022-08-14T01:40:41.636Z,15.00
2022-08-14T01:43:18.615Z,15.00
2022-08-14T01:46:05.685Z,15.00
2022-08-14T01:48:37.980Z,14.90
2022-08-14T01:51:19.028Z,15.00
2022-08-14T01:53:57.062Z,15.10
2022-08-14T01:56:39.415Z,15.20
2022-08-14T01:59:18.080Z,15.10
2022-08-14T02:01:59.066Z,14.90
2022-08-14T02:04:54.613Z,15.00
2022-08-14T02:07:34.435Z,15.00
2022-08-14T02:10:18.001Z,15.10
2022-08-14T02:12:57.083Z,15.10
2022-08-14T02:15:28.506Z,15.10
2022-08-14T02:18:01.675Z,14.90
2022-08-14T02:20:34.050Z,14.80
2022-08-14T02:23:08.276Z,14.80
2022-08-14T02:25:41.303Z,14.80
2022-08-14T02:28:24.232Z,14.90
2022-08-14T02:31:02.951Z,14.90
2022-08-14T02:33:33.571Z,14.90
2022-08-14T02:37:02.967Z,14.90
2022-08-14T02:38:54.329Z,14.70
2022-08-14T02:41:28.875Z,14.70
2022-08-14T02:44:00.903Z,14.70
2022-08-14T02:46:33.811Z,14.80
2022-08-14T02:49:06.276Z,14.80
2022-08-14T02:51:38.579Z,14.60
2022-08-14T02:54:13.147Z,14.50
2022-08-14T02:57:15.809Z,14.30
2022-08-14T02:59:39.396Z,14.30
2022-08-14T03:02:48.583Z,14.30
2022-08-14T03:05:03.712Z,14.30
2022-08-14T03:07:33.877Z,14.20
2022-08-14T03:10:27.838Z,14.10
2022-08-14T03:12:57.376Z,14.10
2022-08-14T03:15:27.371Z,14.00
2022-08-14T03:17:58.516Z,14.00
2022-08-14T03:20:30.443Z,14.00
2022-08-14T03:23:03.266Z,14.10
2022-08-14T03:25:37.701Z,14.20
2022-08-14T03:28:14.418Z,14.10
2022-08-14T03:30:46.228Z,14.00
2022-08-14T03:33:16.300Z,13.90
2022-08-14T03:35:59.862Z,14.00
2022-08-14T03:39:12.797Z,14.00
2022-08-14T03:41:33.263Z,13.90
2022-08-14T03:45:19.382Z,13.70
2022-08-14T03:46:59.658Z,13.50
2022-08-14T03:49:34.041Z,13.50
2022-08-14T03:52:18.137Z,13.50
2022-08-14T03:54:55.813Z,13.40
2022-08-14T03:57:26.106Z,13.20
2022-08-14T03:59:58.761Z,13.40
2022-08-14T04:02:32.600Z,13.40
2022-08-14T04:05:11.711Z,13.40
2022-08-14T04:08:08.157Z,13.40
2022-08-14T04:10:33.470Z,13.40
2022-08-14T04:13:06.053Z,13.30
2022-08-14T04:15:56.387Z,13.10
2022-08-14T04:18:29.876Z,13.20
2022-08-14T04:21:01.130Z,13.30
2022-08-14T04:23:33.426Z,13.20
2022-08-14T04:26:08.227Z,13.20
2022-08-14T04:29:08.606Z,13.20
2022-08-14T04:32:58.330Z,13.20
2022-08-14T04:34:27.776Z,13.20
2022-08-14T04:37:11.081Z,13.20
2022-08-14T04:39:56.614Z,13.30
2022-08-14T04:42:47.595Z,13.40
2022-08-14T04:45:23.860Z,13.50
2022-08-14T04:48:09.937Z,13.60
2022-08-14T04:50:43.900Z,13.70
2022-08-14T04:53:17.065Z,13.90
2022-08-14T04:55:55.314Z,13.90
2022-08-14T04:58:33.031Z,14.20
2022-08-14T05:01:13.021Z,14.80
2022-08-14T05:03:50.709Z,15.70
2022-08-14T05:06:35.146Z,16.80
2022-08-14T05:09:14.099Z,17.80
2022-08-14T05:11:45.292Z,18.90
2022-08-14T05:14:45.513Z,19.50
2022-08-14T05:17:08.642Z,20.20
2022-08-14T05:19:44.804Z,21.10
2022-08-14T05:22:32.892Z,21.90
2022-08-14T05:25:03.983Z,22.70
2022-08-14T05:27:34.057Z,22.90
2022-08-14T05:30:08.482Z,23.40
2022-08-14T05:32:38.898Z,23.80
2022-08-14T05:35:12.034Z,24.20
2022-08-14T05:37:46.270Z,24.20
2022-08-14T05:40:16.305Z,23.90
2022-08-14T05:42:52.837Z,24.40
2022-08-14T05:45:23.679Z,24.50
2022-08-14T05:47:55.341Z,24.40
2022-08-14T05:50:29.417Z,24.40
2022-08-14T05:53:00.420Z,24.30
2022-08-14T05:55:30.824Z,24.00
2022-08-14T05:58:05.134Z,23.80
2022-08-14T06:00:39.940Z,24.10
2022-08-14T06:03:14.895Z,24.50
2022-08-14T06:05:51.970Z,25.10
2022-08-14T06:08:36.379Z,25.80
2022-08-14T06:11:14.896Z,26.70
2022-08-14T06:13:50.893Z,27.70
2022-08-14T06:16:22.299Z,27.40
2022-08-14T06:18:53.274Z,26.50
2022-08-14T06:21:26.949Z,26.40
2022-08-14T06:23:57.361Z,26.20
2022-08-14T06:26:30.168Z,26.50
2022-08-14T06:29:00.808Z,26.80
2022-08-14T06:31:31.377Z,27.30
2022-08-14T06:35:10.481Z,27.60
2022-08-14T06:36:56.596Z,27.60
2022-08-14T06:39:36.454Z,28.10
2022-08-14T06:42:08.494Z,28.70
2022-08-14T06:44:58.590Z,29.40
2022-08-14T06:47:29.398Z,30.50
2022-08-14T06:49:59.497Z,30.60
2022-08-14T06:52:32.330Z,30.80
2022-08-14T06:55:02.470Z,31.00
2022-08-14T06:57:40.250Z,31.10
2022-08-14T07:00:15.150Z,31.00
2022-08-14T07:03:06.305Z,30.50
2022-08-14T07:05:55.318Z,30.20
2022-08-14T07:08:34.391Z,30.00
2022-08-14T07:11:06.153Z,29.60
2022-08-14T07:13:36.129Z,29.20
2022-08-14T07:16:08.478Z,28.60
2022-08-14T07:18:40.728Z,28.30
2022-08-14T07:21:12.487Z,27.60
2022-08-14T07:23:45.198Z,27.10
2022-08-14T07:26:16.546Z,26.00
2022-08-14T07:28:47.720Z,25.40
2022-08-14T07:31:17.990Z,25.50
2022-08-14T07:33:51.730Z,25.30
2022-08-14T07:36:30.357Z,25.10
2022-08-14T07:39:12.447Z,24.90
2022-08-14T07:41:44.435Z,24.70
2022-08-14T07:44:28.746Z,24.40
2022-08-14T07:47:02.022Z,24.30
2022-08-14T07:49:34.625Z,24.20
2022-08-14T07:52:05.338Z,24.10
2022-08-14T07:54:40.815Z,24.00
2022-08-14T07:57:12.946Z,24.10
2022-08-14T07:59:54.685Z,24.10
2022-08-14T08:02:26.670Z,24.10
2022-08-14T08:04:58.987Z,24.20
2022-08-14T08:07:34.322Z,24.30
2022-08-14T08:10:46.320Z,24.30
2022-08-14T08:13:24.493Z,24.30
2022-08-14T08:15:58.744Z,24.50
2022-08-14T08:18:31.165Z,24.70
2022-08-14T08:21:02.183Z,24.70
2022-08-14T08:23:40.629Z,24.80
2022-08-14T08:26:16.246Z,24.80
2022-08-14T08:28:59.184Z,25.00
2022-08-14T08:31:32.860Z,25.20
2022-08-14T08:34:14.429Z,25.50
2022-08-14T08:36:48.963Z,25.80
2022-08-14T08:39:22.429Z,25.90
2022-08-14T08:41:55.818Z,26.00
2022-08-14T08:44:34.461Z,26.00
2022-08-14T08:47:07.993Z,26.00
2022-08-14T08:49:48.510Z,26.00
2022-08-14T08:52:31.313Z,26.10
2022-08-14T08:55:04.515Z,26.00
2022-08-14T08:57:39.737Z,26.20
2022-08-14T09:00:25.636Z,26.40
2022-08-14T09:03:07.031Z,26.60
2022-08-14T09:05:53.993Z,26.80
2022-08-14T09:08:31.618Z,26.90
2022-08-14T09:11:19.155Z,26.90
2022-08-14T09:13:56.756Z,27.00
2022-08-14T09:16:28.502Z,27.10
2022-08-14T09:18:58.621Z,27.20
2022-08-14T09:21:31.134Z,27.30
2022-08-14T09:24:26.208Z,27.40
2022-08-14T09:26:53.527Z,27.50
2022-08-14T09:29:29.003Z,27.80
2022-08-14T09:32:26.882Z,28.00
2022-08-14T09:35:13.120Z,28.10
2022-08-14T09:37:58.097Z,28.50
2022-08-14T09:40:49.250Z,28.50
2022-08-14T09:43:33.528Z,28.70
2022-08-14T09:46:10.833Z,28.80
2022-08-14T09:48:49.078Z,28.90
2022-08-14T09:51:33.074Z,29.20
2022-08-14T09:54:22.522Z,29.50
2022-08-14T09:56:57.399Z,30.00
2022-08-14T09:59:33.543Z,30.40
2022-08-14T10:02:21.894Z,32.50
2022-08-14T10:05:04.970Z,33.60
2022-08-14T10:07:53.389Z,35.40
2022-08-14T10:34:41.275Z,38.60
2022-08-14T10:37:14.402Z,38.50
2022-08-14T10:40:01.461Z,38.00
2022-08-14T10:42:39.716Z,38.20
2022-08-14T10:45:22.281Z,37.70
2022-08-14T10:48:09.527Z,38.10
2022-08-14T10:50:51.637Z,37.30
2022-08-14T10:53:33.452Z,38.40
2022-08-14T10:56:21.941Z,38.40
2022-08-14T10:59:05.712Z,38.30
2022-08-14T11:01:41.478Z,37.30
2022-08-14T11:04:30.175Z,38.00
2022-08-14T11:07:05.729Z,38.20
2022-08-14T11:09:35.974Z,38.50
2022-08-14T11:12:36.624Z,38.30
2022-08-14T11:15:03.059Z,39.00
2022-08-14T11:17:36.174Z,38.00
2022-08-14T11:20:13.738Z,37.60
2022-08-14T11:22:52.422Z,37.50
2022-08-14T11:25:43.482Z,38.90
2022-08-14T11:28:19.355Z,38.40
2022-08-14T11:30:54.628Z,39.80
2022-08-14T11:33:32.724Z,39.50
2022-08-14T11:36:17.275Z,38.90
2022-08-14T11:38:51.488Z,38.60
2022-08-14T11:41:25.354Z,38.30
2022-08-14T11:43:58.264Z,39.50
2022-08-14T11:46:30.479Z,40.50
2022-08-14T11:49:09.455Z,40.00
2022-08-14T11:51:54.351Z,40.30
2022-08-14T11:54:34.208Z,40.60
2022-08-14T11:57:06.390Z,41.00
2022-08-14T11:59:38.402Z,41.10
2022-08-14T12:03:01.325Z,41.00
2022-08-14T12:05:09.197Z,40.70
2022-08-14T12:07:51.008Z,39.90
2022-08-14T12:10:26.400Z,40.90
2022-08-14T12:12:58.032Z,40.50
2022-08-14T12:15:34.058Z,39.30
2022-08-14T12:18:06.587Z,38.70
2022-08-14T12:20:45.776Z,38.70
2022-08-14T12:23:25.746Z,39.30
2022-08-14T12:26:38.793Z,40.00
2022-08-14T12:29:09.960Z,41.10
2022-08-14T12:31:44.473Z,42.40
2022-08-14T12:34:20.037Z,40.40
2022-08-14T12:36:50.780Z,38.20
2022-08-14T12:39:24.191Z,38.70
2022-08-14T12:42:01.579Z,38.70
2022-08-14T12:44:37.809Z,38.40
2022-08-14T12:47:13.326Z,37.10
2022-08-14T12:49:57.589Z,36.10
2022-08-14T12:52:41.704Z,35.10
2022-08-14T12:55:32.282Z,34.30
2022-08-14T12:58:29.634Z,33.70
2022-08-14T13:01:20.584Z,34.10
2022-08-14T13:03:52.751Z,35.60
2022-08-14T13:06:23.252Z,36.70
2022-08-14T13:08:59.972Z,37.90
2022-08-14T13:11:41.105Z,40.00
2022-08-14T13:14:17.541Z,42.00
2022-08-14T13:16:50.544Z,39.60
2022-08-14T13:19:24.440Z,39.80
2022-08-14T13:22:09.439Z,40.80
2022-08-14T13:24:42.215Z,41.20
2022-08-14T13:27:14.301Z,40.30
2022-08-14T13:29:48.145Z,40.20
2022-08-14T13:32:18.644Z,41.50
2022-08-14T13:34:52.552Z,42.30
2022-08-14T13:37:23.869Z,42.00
2022-08-14T13:39:57.822Z,41.50
2022-08-14T13:42:31.490Z,41.50
2022-08-14T13:45:07.218Z,41.30
2022-08-14T13:47:37.247Z,40.80
2022-08-14T13:50:12.111Z,39.50
2022-08-14T13:52:51.828Z,39.60
2022-08-14T13:55:28.677Z,39.60
2022-08-14T13:58:04.837Z,38.90
2022-08-14T14:00:53.640Z,39.70
2022-08-14T14:03:30.291Z,39.90
2022-08-14T14:06:04.978Z,39.30
2022-08-14T14:08:43.257Z,38.50
2022-08-14T14:11:24.052Z,38.80
2022-08-14T14:13:55.415Z,39.90
2022-08-14T14:16:31.324Z,39.50
2022-08-14T14:19:09.722Z,39.80
2022-08-14T14:21:42.056Z,39.10
2022-08-14T14:24:15.382Z,38.70
2022-08-14T14:26:50.628Z,39.40
2022-08-14T14:29:24.155Z,39.90
2022-08-14T14:32:02.074Z,39.50
2022-08-14T14:34:37.733Z,39.00
2022-08-14T14:37:08.713Z,39.40
2022-08-14T14:40:54.104Z,39.80
2022-08-14T14:42:35.352Z,40.10
2022-08-14T14:45:14.457Z,40.70
2022-08-14T14:47:51.855Z,40.70
2022-08-14T14:50:29.743Z,38.20
2022-08-14T14:53:12.402Z,37.90
2022-08-14T14:56:50.687Z,37.10
2022-08-14T14:58:35.437Z,37.30
2022-08-14T15:01:10.500Z,37.00
2022-08-14T15:03:46.196Z,37.10
2022-08-14T15:06:17.480Z,37.10
2022-08-14T15:08:56.921Z,37.70
2022-08-14T15:11:32.031Z,37.10
2022-08-14T15:14:02.853Z,36.90
2022-08-14T15:16:53.340Z,36.10
2022-08-14T15:19:32.010Z,35.60
2022-08-14T15:22:02.308Z,35.50
2022-08-14T15:24:32.729Z,34.90
2022-08-14T15:27:06.633Z,34.80
2022-08-14T15:29:43.144Z,34.70
2022-08-14T15:32:21.080Z,34.60
2022-08-14T15:34:55.737Z,34.80
2022-08-14T15:37:25.781Z,35.10
2022-08-14T15:40:03.381Z,35.20
2022-08-14T15:42:40.921Z,35.40
2022-08-14T15:45:13.857Z,36.20
2022-08-14T15:47:44.946Z,37.00
2022-08-14T15:50:19.331Z,37.80
2022-08-14T15:52:50.007Z,38.40
2022-08-14T15:55:23.103Z,38.30
2022-08-14T15:58:03.897Z,37.50
2022-08-14T16:00:51.974Z,37.00
2022-08-14T16:03:27.298Z,36.00
2022-08-14T16:06:10.777Z,35.20
2022-08-14T16:08:50.267Z,34.90
2022-08-14T16:11:32.729Z,34.60
2022-08-14T16:14:06.770Z,35.00
2022-08-14T16:16:51.052Z,35.20
2022-08-14T16:19:24.445Z,35.50
2022-08-14T16:22:57.209Z,35.60
2022-08-14T16:25:02.617Z,35.90
2022-08-14T16:27:41.105Z,36.20
2022-08-14T16:30:20.855Z,36.30
2022-08-14T16:32:56.727Z,36.30
2022-08-14T16:35:43.477Z,36.20
2022-08-14T16:38:45.425Z,35.30
2022-08-14T16:41:22.949Z,35.00
2022-08-14T16:44:01.375Z,35.10
2022-08-14T16:46:37.408Z,35.30
2022-08-14T16:49:12.102Z,35.30
2022-08-14T16:51:45.960Z,35.10
2022-08-14T16:54:35.122Z,34.50
2022-08-14T16:57:22.567Z,34.20
2022-08-14T16:59:58.871Z,34.00
2022-08-14T17:02:39.052Z,33.80
2022-08-14T17:05:24.847Z,33.50
2022-08-14T17:08:24.069Z,33.00
2022-08-14T17:11:10.694Z,32.70
2022-08-14T17:13:58.008Z,32.30
2022-08-14T17:16:37.525Z,32.00
2022-08-14T17:19:14.168Z,31.70
2022-08-14T17:21:47.993Z,31.50
2022-08-14T17:24:58.200Z,31.30
2022-08-14T17:27:18.402Z,31.00
2022-08-14T17:29:56.703Z,30.70
2022-08-14T17:32:55.630Z,30.50
2022-08-14T17:35:58.694Z,30.20
2022-08-14T17:38:39.602Z,29.90
2022-08-14T17:41:32.626Z,29.60
2022-08-14T17:44:33.993Z,29.40
2022-08-14T17:47:18.125Z,29.10
2022-08-14T17:49:53.909Z,28.90
2022-08-14T17:52:35.899Z,28.70
2022-08-14T17:56:01.717Z,28.50
2022-08-14T17:58:20.730Z,28.30
2022-08-14T18:01:04.590Z,28.10
2022-08-14T18:03:50.241Z,27.90
2022-08-14T18:06:39.354Z,27.60
2022-08-14T18:09:26.341Z,27.30
2022-08-14T18:11:58.660Z,27.10
2022-08-14T18:14:48.858Z,26.90
2022-08-14T18:17:24.998Z,26.70
2022-08-14T18:19:56.676Z,26.50
2022-08-14T18:22:32.239Z,26.30
2022-08-14T18:25:19.329Z,26.00
2022-08-14T18:27:57.201Z,25.90
2022-08-14T18:30:33.258Z,25.70
2022-08-14T18:33:23.129Z,25.30
2022-08-14T18:35:58.122Z,25.10
2022-08-14T18:38:46.238Z,25.30
2022-08-14T18:41:36.364Z,25.40
2022-08-14T18:44:10.944Z,25.30
2022-08-14T18:47:25.480Z,25.30
2022-08-14T18:50:27.480Z,25.40
2022-08-14T18:53:10.965Z,25.20
2022-08-14T18:55:53.837Z,25.20
2022-08-14T18:58:31.121Z,25.20
2022-08-14T19:01:06.193Z,25.10
2022-08-14T19:03:59.768Z,25.00
2022-08-14T19:06:56.445Z,24.90
2022-08-14T19:09:56.353Z,24.80
2022-08-14T19:13:03.187Z,24.90
2022-08-14T19:15:37.533Z,24.80
2022-08-14T19:18:38.298Z,24.80
2022-08-14T19:21:25.112Z,24.80
2022-08-14T19:24:27.494Z,24.80
2022-08-14T19:27:23.984Z,24.70
2022-08-14T19:30:29.146Z,24.70
2022-08-14T19:33:03.709Z,24.60
2022-08-14T19:35:55.868Z,24.50
2022-08-14T19:38:54.651Z,24.50
2022-08-14T19:41:33.886Z,24.50
2022-08-14T19:44:19.606Z,24.20
2022-08-14T19:47:01.405Z,24.20
2022-08-14T19:50:07.857Z,24.10
2022-08-14T19:52:37.061Z,24.00
2022-08-14T19:55:19.180Z,24.00
2022-08-14T19:57:52.012Z,24.00
2022-08-14T20:00:30.278Z,24.00
2022-08-14T20:03:10.184Z,23.80
2022-08-14T20:05:46.385Z,23.90
2022-08-14T20:10:59.556Z,24.00
2022-08-14T20:11:43.423Z,24.10
2022-08-14T20:14:28.026Z,24.10
2022-08-14T20:17:06.706Z,24.10
2022-08-14T20:19:41.531Z,24.20
2022-08-14T20:22:35.737Z,24.20
2022-08-14T20:25:16.742Z,24.20
2022-08-14T20:27:49.927Z,24.20
2022-08-14T20:30:33.815Z,24.20
2022-08-14T20:33:11.314Z,24.20
2022-08-14T20:35:51.560Z,24.20
2022-08-14T20:38:31.159Z,24.20
2022-08-14T20:41:05.610Z,24.20
2022-08-14T20:43:53.020Z,24.10
2022-08-14T20:46:29.532Z,24.20
2022-08-14T20:49:03.878Z,24.20
2022-08-14T20:51:47.346Z,24.20
2022-08-14T20:54:34.045Z,24.20
2022-08-14T20:57:10.089Z,24.00
2022-08-14T20:59:44.041Z,24.00
2022-08-14T21:02:46.864Z,24.00
2022-08-14T21:05:34.406Z,24.00
2022-08-14T21:08:09.930Z,23.90
2022-08-14T21:10:56.808Z,23.90
2022-08-14T21:14:19.872Z,23.90
2022-08-14T21:16:34.256Z,23.80
2022-08-14T21:19:08.707Z,23.80
2022-08-14T21:21:42.408Z,23.70
2022-08-14T21:24:38.883Z,23.80
2022-08-14T21:27:12.934Z,23.70
2022-08-14T21:29:55.463Z,23.80
2022-08-14T21:32:47.279Z,23.80
2022-08-14T21:35:31.278Z,23.80
2022-08-14T21:38:18.124Z,23.70
2022-08-14T21:40:52.798Z,23.70
2022-08-14T21:43:25.913Z,23.70
2022-08-14T21:45:58.872Z,23.60
2022-08-14T21:48:32.616Z,23.60
2022-08-14T21:51:53.985Z,23.70
2022-08-14T21:54:01.339Z,23.60
2022-08-14T21:56:40.795Z,23.60
2022-08-14T21:59:32.661Z,23.60
2022-08-14T22:02:06.127Z,23.70
2022-08-14T22:04:41.672Z,23.80
2022-08-14T22:07:18.203Z,23.80
2022-08-14T22:09:55.073Z,23.80
2022-08-14T22:12:58.762Z,23.90
2022-08-14T22:15:21.901Z,23.80
2022-08-14T22:17:54.573Z,23.80
2022-08-14T22:20:28.125Z,23.80
2022-08-14T22:23:08.926Z,23.70
2022-08-14T22:25:43.565Z,23.60
2022-08-14T22:28:23.098Z,23.60
2022-08-14T22:30:57.722Z,23.60
2022-08-14T22:33:30.817Z,23.60
2022-08-14T22:36:25.108Z,23.70
2022-08-14T22:38:59.352Z,23.60
2022-08-14T22:41:35.253Z,23.60
2022-08-14T22:44:19.857Z,23.60
2022-08-14T22:46:52.652Z,23.60
2022-08-14T22:50:30.059Z,23.60
2022-08-14T22:52:33.242Z,23.60
2022-08-14T22:55:07.770Z,23.60
2022-08-14T22:57:43.416Z,23.70
2022-08-14T23:00:25.420Z,23.60
2022-08-14T23:03:01.578Z,23.60
2022-08-14T23:05:39.925Z,23.60
2022-08-14T23:08:59.205Z,23.60
2022-08-14T23:11:15.444Z,23.60
2022-08-14T23:13:47.009Z,23.60
2022-08-14T23:16:20.102Z,23.40
2022-08-14T23:18:54.012Z,23.30
2022-08-14T23:21:28.973Z,23.20
2022-08-14T23:24:00.796Z,22.90
2022-08-14T23:26:47.065Z,22.70
2022-08-14T23:29:22.526Z,22.50
2022-08-14T23:31:53.490Z,22.40
2022-08-14T23:34:25.520Z,22.50
2022-08-14T23:37:04.041Z,22.50
2022-08-14T23:39:35.926Z,22.50
2022-08-14T23:42:17.987Z,22.30
2022-08-14T23:44:49.034Z,22.20
2022-08-14T23:47:26.595Z,22.00
2022-08-14T23:50:03.359Z,21.90
2022-08-14T23:52:56.282Z,21.70
2022-08-14T23:55:33.457Z,21.40
2022-08-14T23:58:07.875Z,21.20
